sensor_id;sensor_type;location;lat;lon;timestamp;P1;durP1;ratioP1;P2;durP2;ratioP2
58139;SDS011;53185;47.378;18.922;2023-12-07T00:01:11;12.75;;;5.87;;
58139;SDS011;53185;47.378;18.922;2023-12-07T00:03:39;10.68;;;6.15;;
58139;SDS011;53185;47.378;18.922;2023-12-07T00:06:07;13.15;;;5.68;;
58139;SDS011;53185;47.378;18.922;2023-12-07T00:08:34;10.68;;;4.78;;
58139;SDS011;53185;47.378;18.922;2023-12-07T00:11:02;7.22;;;3.45;;
58139;SDS011;53185;47.378;18.922;2023-12-07T00:13:37;4.45;;;2.87;;
58139;SDS011;53185;47.378;18.922;2023-12-07T00:16:05;8.50;;;4.22;;
58139;SDS011;53185;47.378;18.922;2023-12-07T00:18:32;7.97;;;3.90;;
58139;SDS011;53185;47.378;18.922;2023-12-07T00:21:00;9.45;;;4.53;;
58139;SDS011;53185;47.378;18.922;2023-12-07T00:23:28;7.18;;;3.37;;
58139;SDS011;53185;47.378;18.922;2023-12-07T00:25:55;6.57;;;3.45;;
58139;SDS011;53185;47.378;18.922;2023-12-07T00:28:23;6.03;;;2.90;;
58139;SDS011;53185;47.378;18.922;2023-12-07T00:30:50;4.55;;;2.25;;
58139;SDS011;53185;47.378;18.922;2023-12-07T00:33:17;3.10;;;2.03;;
58139;SDS011;53185;47.378;18.922;2023-12-07T00:35:45;5.70;;;2.70;;
58139;SDS011;53185;47.378;18.922;2023-12-07T00:38:12;4.32;;;2.20;;
58139;SDS011;53185;47.378;18.922;2023-12-07T00:40:40;5.47;;;2.22;;
58139;SDS011;53185;47.378;18.922;2023-12-07T00:43:08;4.00;;;2.08;;
58139;SDS011;53185;47.378;18.922;2023-12-07T00:45:36;3.83;;;2.10;;
58139;SDS011;53185;47.378;18.922;2023-12-07T00:48:04;3.95;;;1.90;;
58139;SDS011;53185;47.378;18.922;2023-12-07T00:50:32;4.62;;;2.20;;
58139;SDS011;53185;47.378;18.922;2023-12-07T00:53:00;4.62;;;2.83;;
58139;SDS011;53185;47.378;18.922;2023-12-07T00:55:27;5.10;;;2.80;;
58139;SDS011;53185;47.378;18.922;2023-12-07T00:57:55;3.97;;;2.55;;
58139;SDS011;53185;47.378;18.922;2023-12-07T01:00:23;5.18;;;2.72;;
58139;SDS011;53185;47.378;18.922;2023-12-07T01:02:51;3.15;;;1.90;;
58139;SDS011;53185;47.378;18.922;2023-12-07T01:05:19;3.58;;;1.67;;
58139;SDS011;53185;47.378;18.922;2023-12-07T01:07:48;3.47;;;1.85;;
58139;SDS011;53185;47.378;18.922;2023-12-07T01:10:15;3.08;;;1.70;;
58139;SDS011;53185;47.378;18.922;2023-12-07T01:12:43;3.42;;;1.85;;
58139;SDS011;53185;47.378;18.922;2023-12-07T01:15:10;2.92;;;1.80;;
58139;SDS011;53185;47.378;18.922;2023-12-07T01:17:38;4.47;;;2.30;;
58139;SDS011;53185;47.378;18.922;2023-12-07T01:20:06;3.25;;;1.95;;
58139;SDS011;53185;47.378;18.922;2023-12-07T01:22:42;2.58;;;1.95;;
58139;SDS011;53185;47.378;18.922;2023-12-07T01:25:10;2.70;;;1.75;;
58139;SDS011;53185;47.378;18.922;2023-12-07T01:27:38;3.55;;;2.30;;
58139;SDS011;53185;47.378;18.922;2023-12-07T01:30:05;3.17;;;2.10;;
58139;SDS011;53185;47.378;18.922;2023-12-07T01:32:34;3.78;;;1.98;;
58139;SDS011;53185;47.378;18.922;2023-12-07T01:35:02;2.80;;;1.90;;
58139;SDS011;53185;47.378;18.922;2023-12-07T01:37:31;3.53;;;1.87;;
58139;SDS011;53185;47.378;18.922;2023-12-07T01:39:59;4.05;;;2.33;;
58139;SDS011;53185;47.378;18.922;2023-12-07T01:42:27;3.62;;;1.52;;
58139;SDS011;53185;47.378;18.922;2023-12-07T01:44:55;2.08;;;1.58;;
58139;SDS011;53185;47.378;18.922;2023-12-07T01:47:22;2.42;;;2.03;;
58139;SDS011;53185;47.378;18.922;2023-12-07T01:49:50;3.50;;;1.90;;
58139;SDS011;53185;47.378;18.922;2023-12-07T01:52:19;3.67;;;2.30;;
58139;SDS011;53185;47.378;18.922;2023-12-07T01:54:49;2.85;;;2.03;;
58139;SDS011;53185;47.378;18.922;2023-12-07T01:57:18;4.07;;;2.00;;
58139;SDS011;53185;47.378;18.922;2023-12-07T01:59:46;3.03;;;2.00;;
58139;SDS011;53185;47.378;18.922;2023-12-07T02:02:14;3.47;;;2.22;;
58139;SDS011;53185;47.378;18.922;2023-12-07T02:04:41;4.90;;;2.05;;
58139;SDS011;53185;47.378;18.922;2023-12-07T02:07:09;4.30;;;2.40;;
58139;SDS011;53185;47.378;18.922;2023-12-07T02:09:37;4.43;;;2.35;;
58139;SDS011;53185;47.378;18.922;2023-12-07T02:12:04;4.85;;;1.87;;
58139;SDS011;53185;47.378;18.922;2023-12-07T02:14:32;3.87;;;1.85;;
58139;SDS011;53185;47.378;18.922;2023-12-07T02:17:05;4.03;;;2.17;;
58139;SDS011;53185;47.378;18.922;2023-12-07T02:22:32;2.08;;;1.77;;
58139;SDS011;53185;47.378;18.922;2023-12-07T02:25:06;3.33;;;2.20;;
58139;SDS011;53185;47.378;18.922;2023-12-07T02:30:09;3.70;;;2.20;;
58139;SDS011;53185;47.378;18.922;2023-12-07T02:32:38;3.33;;;1.87;;
58139;SDS011;53185;47.378;18.922;2023-12-07T02:35:08;3.90;;;1.98;;
58139;SDS011;53185;47.378;18.922;2023-12-07T02:37:40;4.15;;;2.20;;
58139;SDS011;53185;47.378;18.922;2023-12-07T02:40:10;3.25;;;2.00;;
58139;SDS011;53185;47.378;18.922;2023-12-07T02:42:38;4.05;;;2.70;;
58139;SDS011;53185;47.378;18.922;2023-12-07T02:45:09;5.45;;;2.62;;
58139;SDS011;53185;47.378;18.922;2023-12-07T02:47:37;4.93;;;2.55;;
58139;SDS011;53185;47.378;18.922;2023-12-07T02:50:06;5.55;;;3.20;;
58139;SDS011;53185;47.378;18.922;2023-12-07T02:52:35;4.60;;;2.87;;
58139;SDS011;53185;47.378;18.922;2023-12-07T02:55:02;6.30;;;3.47;;
58139;SDS011;53185;47.378;18.922;2023-12-07T02:57:30;5.32;;;3.30;;
58139;SDS011;53185;47.378;18.922;2023-12-07T03:00:00;6.75;;;3.05;;
58139;SDS011;53185;47.378;18.922;2023-12-07T03:02:29;5.95;;;3.17;;
58139;SDS011;53185;47.378;18.922;2023-12-07T03:04:57;6.18;;;3.70;;
58139;SDS011;53185;47.378;18.922;2023-12-07T03:07:24;5.87;;;3.40;;
58139;SDS011;53185;47.378;18.922;2023-12-07T03:09:52;7.40;;;3.70;;
58139;SDS011;53185;47.378;18.922;2023-12-07T03:12:20;8.20;;;4.30;;
58139;SDS011;53185;47.378;18.922;2023-12-07T03:14:47;5.57;;;3.67;;
58139;SDS011;53185;47.378;18.922;2023-12-07T03:17:15;6.75;;;4.12;;
58139;SDS011;53185;47.378;18.922;2023-12-07T03:19:43;5.85;;;3.53;;
58139;SDS011;53185;47.378;18.922;2023-12-07T03:22:10;7.57;;;3.90;;
58139;SDS011;53185;47.378;18.922;2023-12-07T03:24:38;6.65;;;3.75;;
58139;SDS011;53185;47.378;18.922;2023-12-07T03:27:05;7.70;;;4.07;;
58139;SDS011;53185;47.378;18.922;2023-12-07T03:29:32;7.18;;;4.55;;
58139;SDS011;53185;47.378;18.922;2023-12-07T03:32:00;10.50;;;5.20;;
58139;SDS011;53185;47.378;18.922;2023-12-07T03:34:27;7.82;;;4.82;;
58139;SDS011;53185;47.378;18.922;2023-12-07T03:36:54;8.32;;;4.53;;
58139;SDS011;53185;47.378;18.922;2023-12-07T03:39:21;10.52;;;5.80;;
58139;SDS011;53185;47.378;18.922;2023-12-07T03:41:52;11.10;;;4.60;;
58139;SDS011;53185;47.378;18.922;2023-12-07T03:44:19;8.80;;;5.20;;
58139;SDS011;53185;47.378;18.922;2023-12-07T03:46:48;8.77;;;5.55;;
58139;SDS011;53185;47.378;18.922;2023-12-07T03:49:16;7.82;;;4.95;;
58139;SDS011;53185;47.378;18.922;2023-12-07T03:51:44;9.02;;;5.00;;
58139;SDS011;53185;47.378;18.922;2023-12-07T03:54:12;7.62;;;5.07;;
58139;SDS011;53185;47.378;18.922;2023-12-07T03:56:40;10.02;;;5.18;;
58139;SDS011;53185;47.378;18.922;2023-12-07T03:59:10;11.60;;;6.35;;
58139;SDS011;53185;47.378;18.922;2023-12-07T04:01:38;8.05;;;4.78;;
58139;SDS011;53185;47.378;18.922;2023-12-07T04:04:06;8.27;;;5.22;;
58139;SDS011;53185;47.378;18.922;2023-12-07T04:06:34;12.82;;;5.85;;
58139;SDS011;53185;47.378;18.922;2023-12-07T04:09:02;9.57;;;5.55;;
58139;SDS011;53185;47.378;18.922;2023-12-07T04:11:31;10.30;;;5.20;;
58139;SDS011;53185;47.378;18.922;2023-12-07T04:13:58;10.30;;;5.50;;
58139;SDS011;53185;47.378;18.922;2023-12-07T04:16:27;11.52;;;5.35;;
58139;SDS011;53185;47.378;18.922;2023-12-07T04:18:55;8.60;;;5.22;;
58139;SDS011;53185;47.378;18.922;2023-12-07T04:21:25;10.60;;;5.72;;
58139;SDS011;53185;47.378;18.922;2023-12-07T04:23:53;13.05;;;5.10;;
58139;SDS011;53185;47.378;18.922;2023-12-07T04:26:21;11.68;;;5.62;;
58139;SDS011;53185;47.378;18.922;2023-12-07T04:28:48;11.45;;;5.87;;
58139;SDS011;53185;47.378;18.922;2023-12-07T04:31:16;11.38;;;5.60;;
58139;SDS011;53185;47.378;18.922;2023-12-07T04:33:44;7.22;;;4.72;;
58139;SDS011;53185;47.378;18.922;2023-12-07T04:36:11;8.60;;;5.18;;
58139;SDS011;53185;47.378;18.922;2023-12-07T04:38:39;11.38;;;5.95;;
58139;SDS011;53185;47.378;18.922;2023-12-07T04:41:07;10.57;;;5.60;;
58139;SDS011;53185;47.378;18.922;2023-12-07T04:43:35;9.95;;;5.80;;
58139;SDS011;53185;47.378;18.922;2023-12-07T04:46:03;12.52;;;5.95;;
58139;SDS011;53185;47.378;18.922;2023-12-07T04:48:31;8.65;;;5.15;;
58139;SDS011;53185;47.378;18.922;2023-12-07T04:51:00;9.70;;;5.53;;
58139;SDS011;53185;47.378;18.922;2023-12-07T04:53:27;13.55;;;6.35;;
58139;SDS011;53185;47.378;18.922;2023-12-07T04:55:55;11.25;;;6.12;;
58139;SDS011;53185;47.378;18.922;2023-12-07T04:58:24;11.50;;;5.37;;
58139;SDS011;53185;47.378;18.922;2023-12-07T05:00:51;9.25;;;5.28;;
58139;SDS011;53185;47.378;18.922;2023-12-07T05:03:19;8.57;;;4.43;;
58139;SDS011;53185;47.378;18.922;2023-12-07T05:05:49;8.52;;;5.18;;
58139;SDS011;53185;47.378;18.922;2023-12-07T05:08:16;10.05;;;4.70;;
58139;SDS011;53185;47.378;18.922;2023-12-07T05:10:45;8.23;;;4.78;;
58139;SDS011;53185;47.378;18.922;2023-12-07T05:13:12;10.82;;;4.50;;
58139;SDS011;53185;47.378;18.922;2023-12-07T05:15:40;7.05;;;4.47;;
58139;SDS011;53185;47.378;18.922;2023-12-07T05:18:08;8.98;;;4.47;;
58139;SDS011;53185;47.378;18.922;2023-12-07T05:20:36;7.78;;;4.32;;
58139;SDS011;53185;47.378;18.922;2023-12-07T05:23:05;7.03;;;4.12;;
58139;SDS011;53185;47.378;18.922;2023-12-07T05:25:35;4.97;;;3.43;;
58139;SDS011;53185;47.378;18.922;2023-12-07T05:28:03;7.82;;;3.70;;
58139;SDS011;53185;47.378;18.922;2023-12-07T05:30:31;8.23;;;4.10;;
58139;SDS011;53185;47.378;18.922;2023-12-07T05:32:58;9.38;;;5.45;;
58139;SDS011;53185;47.378;18.922;2023-12-07T05:35:26;7.50;;;3.85;;
58139;SDS011;53185;47.378;18.922;2023-12-07T05:37:53;6.60;;;3.80;;
58139;SDS011;53185;47.378;18.922;2023-12-07T05:40:21;5.87;;;3.65;;
58139;SDS011;53185;47.378;18.922;2023-12-07T05:42:50;7.70;;;3.92;;
58139;SDS011;53185;47.378;18.922;2023-12-07T05:45:18;10.30;;;4.60;;
58139;SDS011;53185;47.378;18.922;2023-12-07T05:47:45;7.62;;;4.55;;
58139;SDS011;53185;47.378;18.922;2023-12-07T05:50:13;54.13;;;34.75;;
58139;SDS011;53185;47.378;18.922;2023-12-07T05:52:41;8.48;;;5.50;;
58139;SDS011;53185;47.378;18.922;2023-12-07T05:55:09;8.05;;;4.75;;
58139;SDS011;53185;47.378;18.922;2023-12-07T05:57:37;8.50;;;4.75;;
58139;SDS011;53185;47.378;18.922;2023-12-07T06:00:04;7.75;;;4.22;;
58139;SDS011;53185;47.378;18.922;2023-12-07T06:02:48;10.02;;;4.70;;
58139;SDS011;53185;47.378;18.922;2023-12-07T06:05:16;11.27;;;5.85;;
58139;SDS011;53185;47.378;18.922;2023-12-07T06:07:45;15.57;;;6.75;;
58139;SDS011;53185;47.378;18.922;2023-12-07T06:10:12;10.95;;;5.62;;
58139;SDS011;53185;47.378;18.922;2023-12-07T06:12:39;9.30;;;6.47;;
58139;SDS011;53185;47.378;18.922;2023-12-07T06:15:07;11.38;;;6.00;;
58139;SDS011;53185;47.378;18.922;2023-12-07T06:17:35;12.10;;;5.87;;
58139;SDS011;53185;47.378;18.922;2023-12-07T06:20:02;12.73;;;6.45;;
58139;SDS011;53185;47.378;18.922;2023-12-07T06:22:37;11.60;;;6.30;;
58139;SDS011;53185;47.378;18.922;2023-12-07T06:25:04;11.30;;;6.43;;
58139;SDS011;53185;47.378;18.922;2023-12-07T06:27:33;15.63;;;6.62;;
58139;SDS011;53185;47.378;18.922;2023-12-07T06:30:01;14.20;;;7.45;;
58139;SDS011;53185;47.378;18.922;2023-12-07T06:32:29;13.02;;;6.32;;
58139;SDS011;53185;47.378;18.922;2023-12-07T06:34:56;15.38;;;5.68;;
58139;SDS011;53185;47.378;18.922;2023-12-07T06:37:24;10.15;;;6.10;;
58139;SDS011;53185;47.378;18.922;2023-12-07T06:39:51;12.75;;;6.70;;
58139;SDS011;53185;47.378;18.922;2023-12-07T06:42:19;14.40;;;7.55;;
58139;SDS011;53185;47.378;18.922;2023-12-07T06:44:47;14.52;;;7.47;;
58139;SDS011;53185;47.378;18.922;2023-12-07T06:47:16;14.95;;;6.95;;
58139;SDS011;53185;47.378;18.922;2023-12-07T06:49:46;15.80;;;8.10;;
58139;SDS011;53185;47.378;18.922;2023-12-07T06:52:19;16.15;;;7.62;;
58139;SDS011;53185;47.378;18.922;2023-12-07T06:54:47;16.40;;;7.65;;
58139;SDS011;53185;47.378;18.922;2023-12-07T06:57:15;21.87;;;8.57;;
58139;SDS011;53185;47.378;18.922;2023-12-07T06:59:42;15.25;;;7.78;;
58139;SDS011;53185;47.378;18.922;2023-12-07T07:02:10;14.30;;;7.75;;
58139;SDS011;53185;47.378;18.922;2023-12-07T07:04:37;27.55;;;13.02;;
58139;SDS011;53185;47.378;18.922;2023-12-07T07:07:07;17.10;;;8.20;;
58139;SDS011;53185;47.378;18.922;2023-12-07T07:09:34;17.05;;;7.82;;
58139;SDS011;53185;47.378;18.922;2023-12-07T07:12:02;20.80;;;8.90;;
58139;SDS011;53185;47.378;18.922;2023-12-07T07:14:31;15.68;;;7.35;;
58139;SDS011;53185;47.378;18.922;2023-12-07T07:16:59;17.92;;;8.23;;
58139;SDS011;53185;47.378;18.922;2023-12-07T07:19:26;18.42;;;8.35;;
58139;SDS011;53185;47.378;18.922;2023-12-07T07:21:53;23.48;;;10.85;;
58139;SDS011;53185;47.378;18.922;2023-12-07T07:24:22;24.27;;;10.80;;
58139;SDS011;53185;47.378;18.922;2023-12-07T07:26:49;26.23;;;11.52;;
58139;SDS011;53185;47.378;18.922;2023-12-07T07:29:17;15.50;;;8.07;;
58139;SDS011;53185;47.378;18.922;2023-12-07T07:31:45;22.55;;;10.57;;
58139;SDS011;53185;47.378;18.922;2023-12-07T07:34:12;20.15;;;10.77;;
58139;SDS011;53185;47.378;18.922;2023-12-07T07:36:40;25.95;;;10.27;;
58139;SDS011;53185;47.378;18.922;2023-12-07T07:39:09;17.80;;;9.30;;
58139;SDS011;53185;47.378;18.922;2023-12-07T07:41:36;17.25;;;8.10;;
58139;SDS011;53185;47.378;18.922;2023-12-07T07:44:04;17.05;;;8.30;;
58139;SDS011;53185;47.378;18.922;2023-12-07T07:46:34;25.75;;;9.63;;
58139;SDS011;53185;47.378;18.922;2023-12-07T07:49:01;16.58;;;8.48;;
58139;SDS011;53185;47.378;18.922;2023-12-07T07:51:31;15.38;;;8.50;;
58139;SDS011;53185;47.378;18.922;2023-12-07T07:53:59;21.98;;;10.70;;
58139;SDS011;53185;47.378;18.922;2023-12-07T07:56:27;21.27;;;8.73;;
58139;SDS011;53185;47.378;18.922;2023-12-07T07:58:56;17.70;;;9.35;;
58139;SDS011;53185;47.378;18.922;2023-12-07T08:01:27;15.80;;;7.75;;
58139;SDS011;53185;47.378;18.922;2023-12-07T08:03:55;15.93;;;8.48;;
58139;SDS011;53185;47.378;18.922;2023-12-07T08:06:23;14.68;;;7.80;;
58139;SDS011;53185;47.378;18.922;2023-12-07T08:08:50;19.60;;;9.25;;
58139;SDS011;53185;47.378;18.922;2023-12-07T08:11:21;14.85;;;7.43;;
58139;SDS011;53185;47.378;18.922;2023-12-07T08:13:49;15.73;;;7.72;;
58139;SDS011;53185;47.378;18.922;2023-12-07T08:16:17;17.90;;;8.65;;
58139;SDS011;53185;47.378;18.922;2023-12-07T08:18:45;18.70;;;9.88;;
58139;SDS011;53185;47.378;18.922;2023-12-07T08:21:24;14.95;;;7.53;;
58139;SDS011;53185;47.378;18.922;2023-12-07T08:23:57;10.63;;;6.32;;
58139;SDS011;53185;47.378;18.922;2023-12-07T08:26:24;13.13;;;7.12;;
58139;SDS011;53185;47.378;18.922;2023-12-07T08:28:52;14.95;;;6.65;;
58139;SDS011;53185;47.378;18.922;2023-12-07T08:31:22;16.73;;;7.80;;
58139;SDS011;53185;47.378;18.922;2023-12-07T08:33:51;19.67;;;7.93;;
58139;SDS011;53185;47.378;18.922;2023-12-07T08:36:21;15.43;;;7.57;;
58139;SDS011;53185;47.378;18.922;2023-12-07T08:38:50;15.05;;;7.00;;
58139;SDS011;53185;47.378;18.922;2023-12-07T08:41:18;14.15;;;7.00;;
58139;SDS011;53185;47.378;18.922;2023-12-07T08:43:46;13.10;;;7.30;;
58139;SDS011;53185;47.378;18.922;2023-12-07T08:46:14;16.10;;;7.80;;
58139;SDS011;53185;47.378;18.922;2023-12-07T08:48:42;13.57;;;7.00;;
58139;SDS011;53185;47.378;18.922;2023-12-07T08:51:10;14.55;;;8.55;;
58139;SDS011;53185;47.378;18.922;2023-12-07T08:53:40;30.62;;;11.98;;
58139;SDS011;53185;47.378;18.922;2023-12-07T08:56:07;19.55;;;8.52;;
58139;SDS011;53185;47.378;18.922;2023-12-07T08:58:34;28.20;;;11.90;;
58139;SDS011;53185;47.378;18.922;2023-12-07T09:01:02;13.55;;;7.25;;
58139;SDS011;53185;47.378;18.922;2023-12-07T09:03:30;21.02;;;9.60;;
58139;SDS011;53185;47.378;18.922;2023-12-07T09:06:01;13.97;;;7.73;;
58139;SDS011;53185;47.378;18.922;2023-12-07T09:08:29;16.87;;;9.00;;
58139;SDS011;53185;47.378;18.922;2023-12-07T09:10:57;15.50;;;8.20;;
58139;SDS011;53185;47.378;18.922;2023-12-07T09:13:24;18.05;;;8.13;;
58139;SDS011;53185;47.378;18.922;2023-12-07T09:15:52;13.73;;;7.22;;
58139;SDS011;53185;47.378;18.922;2023-12-07T09:18:20;19.98;;;8.85;;
58139;SDS011;53185;47.378;18.922;2023-12-07T09:20:48;21.80;;;10.50;;
58139;SDS011;53185;47.378;18.922;2023-12-07T09:23:16;24.10;;;11.68;;
58139;SDS011;53185;47.378;18.922;2023-12-07T09:25:44;16.12;;;8.73;;
58139;SDS011;53185;47.378;18.922;2023-12-07T09:28:11;15.45;;;8.05;;
58139;SDS011;53185;47.378;18.922;2023-12-07T09:30:40;21.35;;;9.32;;
58139;SDS011;53185;47.378;18.922;2023-12-07T09:33:14;21.17;;;9.55;;
58139;SDS011;53185;47.378;18.922;2023-12-07T09:35:41;24.48;;;12.48;;
58139;SDS011;53185;47.378;18.922;2023-12-07T09:38:09;19.48;;;9.68;;
58139;SDS011;53185;47.378;18.922;2023-12-07T09:40:37;25.80;;;9.95;;
58139;SDS011;53185;47.378;18.922;2023-12-07T09:43:05;18.17;;;8.50;;
58139;SDS011;53185;47.378;18.922;2023-12-07T09:45:32;17.95;;;10.10;;
58139;SDS011;53185;47.378;18.922;2023-12-07T09:48:01;21.35;;;10.02;;
58139;SDS011;53185;47.378;18.922;2023-12-07T09:54:00;12.32;;;7.53;;
58139;SDS011;53185;47.378;18.922;2023-12-07T09:56:31;12.00;;;6.93;;
58139;SDS011;53185;47.378;18.922;2023-12-07T09:58:59;20.35;;;10.68;;
58139;SDS011;53185;47.378;18.922;2023-12-07T10:01:30;11.82;;;6.43;;
58139;SDS011;53185;47.378;18.922;2023-12-07T10:04:20;13.77;;;7.55;;
58139;SDS011;53185;47.378;18.922;2023-12-07T10:06:50;14.45;;;7.37;;
58139;SDS011;53185;47.378;18.922;2023-12-07T10:09:18;14.98;;;8.15;;
58139;SDS011;53185;47.378;18.922;2023-12-07T10:12:02;17.75;;;8.60;;
58139;SDS011;53185;47.378;18.922;2023-12-07T10:14:31;20.10;;;8.27;;
58139;SDS011;53185;47.378;18.922;2023-12-07T10:17:00;15.00;;;8.25;;
58139;SDS011;53185;47.378;18.922;2023-12-07T10:22:01;16.02;;;7.05;;
58139;SDS011;53185;47.378;18.922;2023-12-07T10:24:41;16.12;;;8.05;;
58139;SDS011;53185;47.378;18.922;2023-12-07T10:27:12;17.80;;;8.88;;
58139;SDS011;53185;47.378;18.922;2023-12-07T10:29:43;16.65;;;8.70;;
58139;SDS011;53185;47.378;18.922;2023-12-07T10:34:41;15.68;;;8.00;;
58139;SDS011;53185;47.378;18.922;2023-12-07T10:37:09;13.73;;;7.05;;
58139;SDS011;53185;47.378;18.922;2023-12-07T10:39:38;16.67;;;7.90;;
58139;SDS011;53185;47.378;18.922;2023-12-07T10:42:07;17.17;;;8.77;;
58139;SDS011;53185;47.378;18.922;2023-12-07T10:44:39;17.12;;;7.75;;
58139;SDS011;53185;47.378;18.922;2023-12-07T10:47:09;13.98;;;7.40;;
58139;SDS011;53185;47.378;18.922;2023-12-07T10:49:40;17.12;;;8.35;;
58139;SDS011;53185;47.378;18.922;2023-12-07T10:52:14;13.55;;;7.40;;
58139;SDS011;53185;47.378;18.922;2023-12-07T10:59:16;22.70;;;10.05;;
58139;SDS011;53185;47.378;18.922;2023-12-07T11:01:56;17.80;;;8.38;;
58139;SDS011;53185;47.378;18.922;2023-12-07T11:04:26;19.05;;;9.23;;
58139;SDS011;53185;47.378;18.922;2023-12-07T11:06:55;20.95;;;10.57;;
58139;SDS011;53185;47.378;18.922;2023-12-07T11:09:27;19.33;;;9.85;;
58139;SDS011;53185;47.378;18.922;2023-12-07T11:12:04;21.98;;;9.55;;
58139;SDS011;53185;47.378;18.922;2023-12-07T11:14:35;19.95;;;9.65;;
58139;SDS011;53185;47.378;18.922;2023-12-07T11:17:05;17.43;;;9.40;;
58139;SDS011;53185;47.378;18.922;2023-12-07T11:22:05;20.45;;;10.82;;
58139;SDS011;53185;47.378;18.922;2023-12-07T11:24:34;26.55;;;12.95;;
58139;SDS011;53185;47.378;18.922;2023-12-07T11:27:05;28.87;;;12.82;;
58139;SDS011;53185;47.378;18.922;2023-12-07T11:29:35;24.73;;;12.18;;
58139;SDS011;53185;47.378;18.922;2023-12-07T11:32:04;24.17;;;11.60;;
58139;SDS011;53185;47.378;18.922;2023-12-07T11:34:48;24.63;;;12.37;;
58139;SDS011;53185;47.378;18.922;2023-12-07T11:37:17;29.30;;;13.00;;
58139;SDS011;53185;47.378;18.922;2023-12-07T11:39:45;30.95;;;14.35;;
58139;SDS011;53185;47.378;18.922;2023-12-07T11:42:17;27.52;;;13.10;;
58139;SDS011;53185;47.378;18.922;2023-12-07T11:44:55;25.50;;;11.95;;
58139;SDS011;53185;47.378;18.922;2023-12-07T11:47:25;36.70;;;15.20;;
58139;SDS011;53185;47.378;18.922;2023-12-07T11:49:54;34.72;;;15.15;;
58139;SDS011;53185;47.378;18.922;2023-12-07T11:52:22;33.05;;;15.15;;
58139;SDS011;53185;47.378;18.922;2023-12-07T11:54:50;29.52;;;13.95;;
58139;SDS011;53185;47.378;18.922;2023-12-07T11:57:19;29.33;;;13.90;;
58139;SDS011;53185;47.378;18.922;2023-12-07T11:59:48;26.20;;;12.52;;
58139;SDS011;53185;47.378;18.922;2023-12-07T12:02:16;28.83;;;14.27;;
58139;SDS011;53185;47.378;18.922;2023-12-07T12:04:44;27.87;;;12.77;;
58139;SDS011;53185;47.378;18.922;2023-12-07T12:07:14;32.08;;;12.98;;
58139;SDS011;53185;47.378;18.922;2023-12-07T12:09:43;25.40;;;13.85;;
58139;SDS011;53185;47.378;18.922;2023-12-07T12:12:12;36.20;;;15.95;;
58139;SDS011;53185;47.378;18.922;2023-12-07T12:14:43;40.12;;;16.98;;
58139;SDS011;53185;47.378;18.922;2023-12-07T12:17:14;32.90;;;15.45;;
58139;SDS011;53185;47.378;18.922;2023-12-07T12:19:43;31.77;;;14.38;;
58139;SDS011;53185;47.378;18.922;2023-12-07T12:22:12;33.50;;;16.70;;
58139;SDS011;53185;47.378;18.922;2023-12-07T12:24:40;29.80;;;14.65;;
58139;SDS011;53185;47.378;18.922;2023-12-07T12:27:11;35.75;;;16.30;;
58139;SDS011;53185;47.378;18.922;2023-12-07T12:29:39;30.85;;;14.65;;
58139;SDS011;53185;47.378;18.922;2023-12-07T12:32:08;32.13;;;15.05;;
58139;SDS011;53185;47.378;18.922;2023-12-07T12:34:37;28.12;;;13.25;;
58139;SDS011;53185;47.378;18.922;2023-12-07T12:37:05;29.37;;;13.82;;
58139;SDS011;53185;47.378;18.922;2023-12-07T12:39:34;33.92;;;15.45;;
58139;SDS011;53185;47.378;18.922;2023-12-07T12:42:02;34.78;;;15.43;;
58139;SDS011;53185;47.378;18.922;2023-12-07T12:44:34;31.48;;;15.60;;
58139;SDS011;53185;47.378;18.922;2023-12-07T12:47:07;35.40;;;17.35;;
58139;SDS011;53185;47.378;18.922;2023-12-07T12:49:38;33.97;;;14.85;;
58139;SDS011;53185;47.378;18.922;2023-12-07T12:52:09;33.17;;;15.25;;
58139;SDS011;53185;47.378;18.922;2023-12-07T12:54:42;37.92;;;14.85;;
58139;SDS011;53185;47.378;18.922;2023-12-07T12:57:11;30.15;;;16.20;;
58139;SDS011;53185;47.378;18.922;2023-12-07T12:59:41;33.33;;;15.43;;
58139;SDS011;53185;47.378;18.922;2023-12-07T13:02:09;29.80;;;14.27;;
58139;SDS011;53185;47.378;18.922;2023-12-07T13:04:38;35.05;;;15.07;;
58139;SDS011;53185;47.378;18.922;2023-12-07T13:07:09;34.00;;;16.05;;
58139;SDS011;53185;47.378;18.922;2023-12-07T13:09:41;28.55;;;13.90;;
58139;SDS011;53185;47.378;18.922;2023-12-07T13:12:11;42.62;;;17.05;;
58139;SDS011;53185;47.378;18.922;2023-12-07T13:14:39;43.50;;;18.25;;
58139;SDS011;53185;47.378;18.922;2023-12-07T13:17:16;30.77;;;15.43;;
58139;SDS011;53185;47.378;18.922;2023-12-07T13:19:44;35.95;;;17.05;;
58139;SDS011;53185;47.378;18.922;2023-12-07T13:22:12;35.15;;;14.87;;
58139;SDS011;53185;47.378;18.922;2023-12-07T13:24:40;31.98;;;15.52;;
58139;SDS011;53185;47.378;18.922;2023-12-07T13:27:08;32.80;;;16.10;;
58139;SDS011;53185;47.378;18.922;2023-12-07T13:29:40;38.03;;;17.55;;
58139;SDS011;53185;47.378;18.922;2023-12-07T13:32:07;35.63;;;15.75;;
58139;SDS011;53185;47.378;18.922;2023-12-07T13:34:36;33.00;;;16.35;;
58139;SDS011;53185;47.378;18.922;2023-12-07T13:37:04;37.20;;;17.30;;
58139;SDS011;53185;47.378;18.922;2023-12-07T13:39:34;45.00;;;17.85;;
58139;SDS011;53185;47.378;18.922;2023-12-07T13:42:02;30.95;;;15.48;;
58139;SDS011;53185;47.378;18.922;2023-12-07T13:44:37;38.85;;;18.87;;
58139;SDS011;53185;47.378;18.922;2023-12-07T13:47:05;42.95;;;18.35;;
58139;SDS011;53185;47.378;18.922;2023-12-07T13:49:34;30.98;;;13.95;;
58139;SDS011;53185;47.378;18.922;2023-12-07T13:52:03;36.00;;;16.92;;
58139;SDS011;53185;47.378;18.922;2023-12-07T13:54:35;43.35;;;16.45;;
58139;SDS011;53185;47.378;18.922;2023-12-07T13:57:07;42.20;;;16.02;;
58139;SDS011;53185;47.378;18.922;2023-12-07T13:59:37;35.63;;;17.10;;
58139;SDS011;53185;47.378;18.922;2023-12-07T14:02:06;34.67;;;16.27;;
58139;SDS011;53185;47.378;18.922;2023-12-07T14:04:37;40.17;;;16.75;;
58139;SDS011;53185;47.378;18.922;2023-12-07T14:07:16;31.65;;;15.52;;
58139;SDS011;53185;47.378;18.922;2023-12-07T14:09:48;53.70;;;21.48;;
58139;SDS011;53185;47.378;18.922;2023-12-07T14:12:25;41.78;;;18.67;;
58139;SDS011;53185;47.378;18.922;2023-12-07T14:14:57;40.80;;;17.67;;
58139;SDS011;53185;47.378;18.922;2023-12-07T14:17:27;34.78;;;17.17;;
58139;SDS011;53185;47.378;18.922;2023-12-07T14:20:25;37.03;;;17.15;;
58139;SDS011;53185;47.378;18.922;2023-12-07T14:23:25;36.85;;;17.30;;
58139;SDS011;53185;47.378;18.922;2023-12-07T14:26:22;37.95;;;16.67;;
58139;SDS011;53185;47.378;18.922;2023-12-07T14:29:52;33.90;;;16.48;;
58139;SDS011;53185;47.378;18.922;2023-12-07T14:32:26;46.53;;;16.55;;
58139;SDS011;53185;47.378;18.922;2023-12-07T14:34:58;43.38;;;18.75;;
58139;SDS011;53185;47.378;18.922;2023-12-07T14:37:29;35.42;;;17.40;;
58139;SDS011;53185;47.378;18.922;2023-12-07T14:39:59;41.45;;;19.25;;
58139;SDS011;53185;47.378;18.922;2023-12-07T14:42:29;41.03;;;19.50;;
58139;SDS011;53185;47.378;18.922;2023-12-07T14:45:03;41.95;;;18.45;;
58139;SDS011;53185;47.378;18.922;2023-12-07T14:47:51;40.40;;;17.35;;
58139;SDS011;53185;47.378;18.922;2023-12-07T14:50:20;47.90;;;19.17;;
58139;SDS011;53185;47.378;18.922;2023-12-07T14:52:48;45.70;;;19.90;;
58139;SDS011;53185;47.378;18.922;2023-12-07T14:55:17;39.20;;;18.20;;